MiSS Stacie — WDF5915 — position and weather

sailwx.info

Track history (hours):
 
Tides and Currents Weather Stations Pressure Air Temp Water Temp Dewpoint Dewpoint Depression Visibility Wind Speed Wind Dir Waves Ship Positions

MiSS Stacie

Owner: Crosby Marine Transportation LLC, Golden Meadow, LA. More information available from US FCC via Universal Licensing System and Coast Guard Vessel Documentation Center.

Last reported at 2017-Aug-12 02:05 UTC. Time now 2017-Aug-16 19:38 UTC.
Position N 29°31' W 094°53'.

Length 20 m; draft 2 m.

Type: Tug. MMSI: 367468640.

Date/timePositionNaut miles runAvg speedWind from/ knotsBaromVisibWave heightAir tempDewpointWater temp
2017-Aug-12 02:05N 29°31' W 094°53'1 6.1
2017-Aug-12 01:59N 29°32' W 094°54'3 6.3
2017-Aug-12 01:30N 29°34' W 094°56'3 6.3
2017-Aug-12 01:00N 29°37' W 094°58'3 6.4
2017-Aug-12 00:30N 29°40' W 094°59'3 6.4
2017-Aug-12 00:00N 29°42' W 095°01'5 6.0
2017-Aug-11 23:14N 29°46' W 095°05'2 6.1
2017-Aug-11 22:56N 29°44' W 095°06'4 6.0
2017-Aug-11 22:20N 29°45' W 095°11'3 0.1
2017-Aug-10 20:26N 29°43' W 095°14'3 6.8
2017-Aug-10 19:58N 29°45' W 095°11'3 6.9
2017-Aug-10 19:30N 29°44' W 095°07'3 6.3
2017-Aug-10 18:59N 29°47' W 095°04'1 0.8
2017-Aug-10 18:19N 29°47' W 095°05'0 0.0
2017-Aug-10 17:00N 29°47' W 095°05'0 0.0
2017-Aug-10 12:48N 29°47' W 095°05'2 3.4
2017-Aug-10 12:21N 29°46' W 095°05'1 2.5
2017-Aug-10 11:56N 29°46' W 095°06'1 3.2
2017-Aug-10 11:28N 29°47' W 095°05'1 0.0
2017-Aug-09 22:36N 29°47' W 095°05'0 0.1
2017-Aug-09 22:26N 29°47' W 095°05'0 0.0
2017-Aug-09 17:05N 29°47' W 095°05'0 0.4
2017-Aug-09 17:00N 29°47' W 095°05'2 2.5
2017-Aug-09 16:23N 29°46' W 095°05'2 5.2
2017-Aug-09 16:00N 29°44' W 095°03'3 5.6
2017-Aug-09 15:30N 29°42' W 095°01'3 6.2
2017-Aug-09 15:00N 29°40' W 094°58'4 7.2
2017-Aug-09 14:30N 29°37' W 094°57'4 7.1
2017-Aug-09 14:00N 29°34' W 094°55'4 7.6
2017-Aug-09 13:30N 29°31' W 094°53'57 1.5
2017-Aug-08 00:57N 29°60' W 093°57'0 0.0
2017-Aug-08 00:12N 29°60' W 093°57'0 0.0
2017-Aug-07 23:54N 29°60' W 093°57'23 0.6
2017-Aug-06 10:05N 30°04' W 093°30'2 6.6
2017-Aug-06 09:46N 30°04' W 093°27'2 6.6
2017-Aug-06 09:30N 30°04' W 093°26'3 6.5
2017-Aug-06 09:01N 30°04' W 093°22'2 4.7
2017-Aug-06 08:31N 30°05' W 093°20'2 3.9
2017-Aug-06 08:00N 30°05' W 093°18'2 4.1
2017-Aug-06 07:30N 30°04' W 093°16'2 4.9
2017-Aug-06 07:00N 30°02' W 093°14'3 5.5
2017-Aug-06 06:30N 29°59' W 093°13'3 6.5
2017-Aug-06 06:00N 29°57' W 093°10'3 5.9
2017-Aug-06 05:29N 29°56' W 093°07'41 6.2
2017-Aug-05 22:52N 29°51' W 092°20'2 6.1
2017-Aug-05 22:28N 29°50' W 092°18'3 6.6
2017-Aug-05 22:01N 29°48' W 092°15'2 4.4
2017-Aug-05 21:31N 29°47' W 092°12'0 0.3
2017-Aug-05 21:01N 29°47' W 092°12'1 2.7
2017-Aug-05 20:31N 29°47' W 092°11'2 4.2
2017-Aug-05 20:00N 29°47' W 092°08'4 7.0
2017-Aug-05 19:30N 29°48' W 092°05'67 6.0
2017-Aug-05 08:18N 29°32' W 090°50'2 6.8
2017-Aug-05 08:00N 29°32' W 090°48'3 5.6
2017-Aug-05 07:31N 29°34' W 090°45'2 5.0
2017-Aug-05 07:00N 29°35' W 090°43'2 3.7
2017-Aug-05 06:31N 29°36' W 090°41'2 4.2
2017-Aug-05 06:00N 29°36' W 090°39'1 2.5
2017-Aug-05 05:31N 29°35' W 090°38'2 4.6
2017-Aug-05 05:00N 29°35' W 090°35'3 6.4
2017-Aug-05 04:30N 29°34' W 090°32'  
Track history (hours):
 
Tides and Currents Weather Stations Pressure Air Temp Water Temp Dewpoint Dewpoint Depression Visibility Wind Speed Wind Dir Waves Ship Positions

MiSS Stacie

Owner: Crosby Marine Transportation LLC, Golden Meadow, LA. More information available from US FCC via Universal Licensing System and Coast Guard Vessel Documentation Center.

Last reported at 2017-Aug-12 02:05 UTC. Time now 2017-Aug-16 19:38 UTC.
Position N 29°31' W 094°53'.

Length 20 m; draft 2 m.

Type: Tug. MMSI: 367468640.

Date/timePositionNaut miles runAvg speedWind from/ knotsBaromVisibWave heightAir tempDewpointWater temp
2017-Aug-12 02:05N 29°31' W 094°53'1 6.1
2017-Aug-12 01:59N 29°32' W 094°54'3 6.3
2017-Aug-12 01:30N 29°34' W 094°56'3 6.3
2017-Aug-12 01:00N 29°37' W 094°58'3 6.4
2017-Aug-12 00:30N 29°40' W 094°59'3 6.4
2017-Aug-12 00:00N 29°42' W 095°01'5 6.0
2017-Aug-11 23:14N 29°46' W 095°05'2 6.1
2017-Aug-11 22:56N 29°44' W 095°06'4 6.0
2017-Aug-11 22:20N 29°45' W 095°11'3 0.1
2017-Aug-10 20:26N 29°43' W 095°14'3 6.8
2017-Aug-10 19:58N 29°45' W 095°11'3 6.9
2017-Aug-10 19:30N 29°44' W 095°07'3 6.3
2017-Aug-10 18:59N 29°47' W 095°04'1 0.8
2017-Aug-10 18:19N 29°47' W 095°05'0 0.0
2017-Aug-10 17:00N 29°47' W 095°05'0 0.0
2017-Aug-10 12:48N 29°47' W 095°05'2 3.4
2017-Aug-10 12:21N 29°46' W 095°05'1 2.5
2017-Aug-10 11:56N 29°46' W 095°06'1 3.2
2017-Aug-10 11:28N 29°47' W 095°05'1 0.0
2017-Aug-09 22:36N 29°47' W 095°05'0 0.1
2017-Aug-09 22:26N 29°47' W 095°05'0 0.0
2017-Aug-09 17:05N 29°47' W 095°05'0 0.4
2017-Aug-09 17:00N 29°47' W 095°05'2 2.5
2017-Aug-09 16:23N 29°46' W 095°05'2 5.2
2017-Aug-09 16:00N 29°44' W 095°03'3 5.6
2017-Aug-09 15:30N 29°42' W 095°01'3 6.2
2017-Aug-09 15:00N 29°40' W 094°58'4 7.2
2017-Aug-09 14:30N 29°37' W 094°57'4 7.1
2017-Aug-09 14:00N 29°34' W 094°55'4 7.6
2017-Aug-09 13:30N 29°31' W 094°53'57 1.5
2017-Aug-08 00:57N 29°60' W 093°57'0 0.0
2017-Aug-08 00:12N 29°60' W 093°57'0 0.0
2017-Aug-07 23:54N 29°60' W 093°57'23 0.6
2017-Aug-06 10:05N 30°04' W 093°30'2 6.6
2017-Aug-06 09:46N 30°04' W 093°27'2 6.6
2017-Aug-06 09:30N 30°04' W 093°26'3 6.5
2017-Aug-06 09:01N 30°04' W 093°22'2 4.7
2017-Aug-06 08:31N 30°05' W 093°20'2 3.9
2017-Aug-06 08:00N 30°05' W 093°18'2 4.1
2017-Aug-06 07:30N 30°04' W 093°16'2 4.9
2017-Aug-06 07:00N 30°02' W 093°14'3 5.5
2017-Aug-06 06:30N 29°59' W 093°13'3 6.5
2017-Aug-06 06:00N 29°57' W 093°10'3 5.9
2017-Aug-06 05:29N 29°56' W 093°07'41 6.2
2017-Aug-05 22:52N 29°51' W 092°20'2 6.1
2017-Aug-05 22:28N 29°50' W 092°18'3 6.6
2017-Aug-05 22:01N 29°48' W 092°15'2 4.4
2017-Aug-05 21:31N 29°47' W 092°12'0 0.3
2017-Aug-05 21:01N 29°47' W 092°12'1 2.7
2017-Aug-05 20:31N 29°47' W 092°11'2 4.2
2017-Aug-05 20:00N 29°47' W 092°08'4 7.0
2017-Aug-05 19:30N 29°48' W 092°05'67 6.0
2017-Aug-05 08:18N 29°32' W 090°50'2 6.8
2017-Aug-05 08:00N 29°32' W 090°48'3 5.6
2017-Aug-05 07:31N 29°34' W 090°45'2 5.0
2017-Aug-05 07:00N 29°35' W 090°43'2 3.7
2017-Aug-05 06:31N 29°36' W 090°41'2 4.2
2017-Aug-05 06:00N 29°36' W 090°39'1 2.5
2017-Aug-05 05:31N 29°35' W 090°38'2 4.6
2017-Aug-05 05:00N 29°35' W 090°35'3 6.4
2017-Aug-05 04:30N 29°34' W 090°32'  

Dump ship's entire track history